Time;durP1;ratioP1;P1;durP2;ratioP2;P2;SDS_P1;SDS_P2;PMS_P1;PMS_P2;Temp;Humidity;BMP_temperature;BMP_pressure;BME280_temperature;BME280_humidity;BME280_pressure;Samples;Min_cycle;Max_cycle;Signal;HPM_P1;HPM_P2
2023/06/28 00:00:10;;;;;;;3.92;1.90;;;;;;;16.70;100.00;95933.91;1042951;28;20029;-75
2023/06/28 00:00:40;;;;;;;4.50;2.30;;;;;;;16.71;100.00;95934.69;1043033;28;20066;-75
2023/06/28 00:01:11;;;;;;;2.88;2.03;;;;;;;16.64;100.00;95921.06;1042160;28;20090;-75
2023/06/28 00:01:41;;;;;;;6.53;1.90;;;;;;;16.66;100.00;95924.97;1038570;28;20025;-75
2023/06/28 00:02:12;;;;;;;3.08;1.90;;;;;;;16.70;100.00;95928.63;1034915;28;20026;-75
2023/06/28 00:02:42;;;;;;;3.03;1.80;;;;;;;16.72;100.00;95937.03;1037067;28;20427;-75
2023/06/28 00:03:13;;;;;;;2.65;1.95;;;;;;;16.67;100.00;95923.91;1042759;28;20025;-75
2023/06/28 00:03:43;;;;;;;4.85;1.55;;;;;;;16.71;100.00;95935.47;1047056;28;20029;-75
2023/06/28 00:04:14;;;;;;;3.35;1.80;;;;;;;16.72;100.00;95937.03;1050099;28;20040;-75
2023/06/28 00:04:45;;;;;;;3.40;1.88;;;;;;;16.68;100.00;95922.81;1051151;28;20429;-75
2023/06/28 00:05:15;;;;;;;2.38;1.60;;;;;;;16.71;100.00;95935.47;1042595;28;20029;-75
2023/06/28 00:05:46;;;;;;;4.22;1.65;;;;;;;16.73;100.00;95930.69;1038970;28;20105;-74
2023/06/28 00:06:19;;;;;;;2.65;1.80;;;;;;;16.73;100.00;95932.53;1038571;28;20029;-75
2023/06/28 00:06:50;;;;;;;5.97;2.20;;;;;;;16.76;100.00;95939.13;1030974;28;20030;-74
2023/06/28 00:07:20;;;;;;;4.75;1.30;;;;;;;16.76;100.00;95941.78;1039168;28;20045;-75
2023/06/28 00:07:50;;;;;;;3.72;1.55;;;;;;;16.74;100.00;95934.13;1045810;28;20021;-74
2023/06/28 00:08:21;;;;;;;4.70;1.70;;;;;;;16.71;100.00;95934.69;1050510;27;20024;-74
2023/06/28 00:08:52;;;;;;;2.83;1.67;;;;;;;16.77;100.00;95938.03;1050902;28;20020;-74
2023/06/28 00:09:22;;;;;;;3.05;1.73;;;;;;;16.78;100.00;95939.63;1046627;28;20017;-75
2023/06/28 00:09:53;;;;;;;6.65;2.33;;;;;;;16.75;100.00;95937.56;1046787;28;20829;-75
2023/06/28 00:10:23;;;;;;;2.17;1.60;;;;;;;16.78;100.00;95940.41;1045611;28;20028;-75
2023/06/28 00:10:55;;;;;;;2.25;1.60;;;;;;;16.82;100.00;95940.59;1034574;28;20026;-75
2023/06/28 00:11:26;;;;;;;5.25;1.80;;;;;;;16.73;100.00;95938.63;1033836;28;20038;-74
2023/06/28 00:11:57;;;;;;;4.00;1.67;;;;;;;16.77;100.00;95935.41;1038684;28;20044;-74
2023/06/28 00:12:29;;;;;;;2.80;1.52;;;;;;;16.79;100.00;95941.19;1039214;28;20654;-75
2023/06/28 00:12:59;;;;;;;5.30;1.90;;;;;;;16.74;100.00;95934.13;1038213;28;20423;-75
2023/06/28 00:13:30;;;;;;;2.28;1.70;;;;;;;16.81;100.00;95933.75;1035270;28;20030;-74
2023/06/28 00:14:00;;;;;;;4.93;2.10;;;;;;;16.80;100.00;95942.75;1047071;28;20580;-74
2023/06/28 00:14:31;;;;;;;5.00;1.90;;;;;;;16.72;100.00;95926.44;1048645;28;20446;-75
2023/06/28 00:15:01;;;;;;;4.60;1.60;;;;;;;16.80;100.00;95934.81;1042956;28;20017;-75
2023/06/28 00:15:32;;;;;;;4.85;1.75;;;;;;;16.72;100.00;95926.44;1030427;28;20084;-73
2023/06/28 00:16:02;;;;;;;2.88;1.55;;;;;;;16.82;100.00;95936.09;1030646;28;20022;-74
2023/06/28 00:16:33;;;;;;;3.67;1.58;;;;;;;16.79;100.00;95936.66;1034677;28;20026;-74
2023/06/28 00:17:03;;;;;;;8.35;2.00;;;;;;;16.79;100.00;95941.97;1034866;28;20503;-75
2023/06/28 00:17:34;;;;;;;3.60;1.77;;;;;;;16.73;100.00;95935.16;1038998;28;20075;-74
2023/06/28 00:18:04;;;;;;;3.50;2.13;;;;;;;16.77;100.00;95940.69;1042570;28;20032;-75
2023/06/28 00:18:35;;;;;;;2.58;1.50;;;;;;;16.76;100.00;95947.09;1050112;28;20024;-75
2023/06/28 00:19:06;;;;;;;5.03;2.03;;;;;;;16.80;100.00;95948.06;1047027;28;20025;-75
2023/06/28 00:19:47;;;;;;;4.45;1.90;;;;;;;16.76;100.00;95937.25;1042870;28;20025;-75
2023/06/28 00:20:18;;;;;;;3.08;1.90;;;;;;;16.71;100.00;95940.78;1038682;28;20056;-74
2023/06/28 00:20:48;;;;;;;5.15;2.42;;;;;;;16.70;100.00;95943.75;1040365;28;20057;-75
2023/06/28 00:21:19;;;;;;;3.03;1.73;;;;;;;16.73;100.00;95949.22;1047684;28;20025;-74
2023/06/28 00:21:49;;;;;;;5.57;1.95;;;;;;;16.75;100.00;95945.53;1050537;28;20531;-75
2023/06/28 00:22:22;;;;;;;4.10;2.00;;;;;;;16.74;100.00;95947.38;1051270;28;20024;-75
2023/06/28 00:22:52;;;;;;;6.18;2.33;;;;;;;16.73;100.00;95953.72;1046556;28;20092;-74
2023/06/28 00:23:23;;;;;;;3.75;2.03;;;;;;;16.72;100.00;95952.16;1044036;28;20541;-74
2023/06/28 00:23:54;;;;;;;3.65;2.03;;;;;;;16.72;100.00;95944.22;1046905;28;20032;-74
2023/06/28 00:24:25;;;;;;;2.45;1.75;;;;;;;16.72;100.00;95942.34;1051108;28;20024;-75
2023/06/28 00:24:59;;;;;;;7.82;1.77;;;;;;;16.64;100.00;95940.41;1051011;28;20036;-75
2023/06/28 00:25:29;;;;;;;4.35;2.00;;;;;;;16.65;100.00;95944.59;1047547;28;20044;-76
2023/06/28 00:26:00;;;;;;;3.78;1.63;;;;;;;16.69;100.00;95940.28;1046371;28;20453;-75
2023/06/28 00:26:30;;;;;;;3.58;1.60;;;;;;;16.73;100.00;95943.13;1038730;28;20334;-76
2023/06/28 00:27:00;;;;;;;3.83;1.50;;;;;;;16.76;100.00;95944.44;1034963;28;20029;-76
2023/06/28 00:27:31;;;;;;;4.72;1.75;;;;;;;16.68;100.00;95945.91;1038695;28;20029;-77
2023/06/28 00:28:01;;;;;;;5.03;1.90;;;;;;;16.71;100.00;95943.44;1037990;28;20029;-75
2023/06/28 00:28:32;;;;;;;4.22;1.70;;;;;;;16.68;100.00;95946.66;1038386;28;20041;-76
2023/06/28 00:29:02;;;;;;;3.90;2.00;;;;;;;16.72;100.00;95952.94;1042748;28;20078;-76
2023/06/28 00:29:33;;;;;;;2.45;1.63;;;;;;;16.67;100.00;95952.28;1038448;28;20025;-77
2023/06/28 00:30:03;;;;;;;3.33;1.85;;;;;;;16.63;100.00;95949.44;1034524;28;20033;-76
2023/06/28 00:30:34;;;;;;;5.43;2.53;;;;;;;16.71;100.00;95964.63;1046516;28;20586;-76
2023/06/28 00:31:04;;;;;;;3.20;1.42;;;;;;;16.69;100.00;95958.84;1038095;28;20237;-76
2023/06/28 00:31:35;;;;;;;4.43;1.67;;;;;;;16.66;100.00;95954.13;1038577;28;20034;-76
2023/06/28 00:32:06;;;;;;;5.13;2.13;;;;;;;16.73;100.00;95969.63;1042450;28;20049;-76
2023/06/28 00:32:36;;;;;;;5.05;2.13;;;;;;;16.67;100.00;95966.31;1042827;28;20029;-76
2023/06/28 00:33:07;;;;;;;3.45;1.70;;;;;;;16.66;100.00;95964.72;1038599;28;20025;-76
2023/06/28 00:33:37;;;;;;;3.63;1.60;;;;;;;16.59;100.00;95956.38;1034487;28;20033;-76
2023/06/28 00:34:08;;;;;;;2.92;1.83;;;;;;;16.63;100.00;95964.53;1034778;28;20487;-76
2023/06/28 00:34:39;;;;;;;4.25;2.20;;;;;;;16.67;100.00;95968.97;1042637;28;20082;-76
2023/06/28 00:35:09;;;;;;;1.63;1.50;;;;;;;16.60;100.00;95971.22;1038806;28;20029;-76
2023/06/28 00:35:40;;;;;;;3.20;1.90;;;;;;;16.58;100.00;95978.66;1042934;28;20043;-77
2023/06/28 00:36:10;;;;;;;2.13;1.67;;;;;;;16.48;100.00;95974.34;1046797;28;20067;-76
2023/06/28 00:36:41;;;;;;;6.30;2.20;;;;;;;16.49;100.00;95980.44;1042783;28;20033;-76
2023/06/28 00:37:11;;;;;;;2.28;1.75;;;;;;;16.43;100.00;95987.69;1034366;28;20022;-76
2023/06/28 00:37:42;;;;;;;5.30;1.80;;;;;;;16.34;100.00;95978.06;1038669;28;20029;-77
2023/06/28 00:38:12;;;;;;;5.18;1.80;;;;;;;16.23;100.00;95988.03;1042913;28;20036;-76
2023/06/28 00:38:43;;;;;;;3.55;1.60;;;;;;;16.21;100.00;95979.63;1041784;28;20025;-76
2023/06/28 00:39:13;;;;;;;3.50;1.75;;;;;;;16.14;100.00;95973.94;1034624;28;20030;-77
2023/06/28 00:39:44;;;;;;;6.90;2.08;;;;;;;16.12;100.00;95982.16;1034629;28;20710;-77
2023/06/28 00:40:14;;;;;;;6.57;2.10;;;;;;;15.98;100.00;95984.78;1042685;28;20032;-76
2023/06/28 00:40:45;;;;;;;5.90;1.73;;;;;;;15.94;100.00;95990.94;1042579;28;20020;-77
2023/06/28 00:41:15;;;;;;;3.20;2.03;;;;;;;15.83;100.00;95986.88;1025722;28;20023;-76
2023/06/28 00:41:45;;;;;;;4.63;2.03;;;;;;;15.82;100.00;95987.97;1026658;28;20031;-76
2023/06/28 00:42:16;;;;;;;3.90;2.47;;;;;;;15.78;100.00;95999.13;1040640;28;20410;-77
2023/06/28 00:42:46;;;;;;;4.45;2.28;;;;;;;15.72;100.00;95999.47;1042575;28;20020;-76
2023/06/28 00:43:17;;;;;;;5.20;2.22;;;;;;;15.63;100.00;95991.41;1038524;28;20029;-77
2023/06/28 00:43:48;;;;;;;6.47;1.90;;;;;;;15.43;100.00;95981.13;1034436;28;20053;-76
2023/06/28 00:44:18;;;;;;;4.63;1.92;;;;;;;15.31;100.00;95978.91;1034602;28;20033;-76
2023/06/28 00:44:49;;;;;;;4.30;2.22;;;;;;;15.41;100.00;96010.50;1038436;28;20033;-76
2023/06/28 00:45:19;;;;;;;3.22;1.75;;;;;;;15.38;100.00;96007.63;1034670;28;20025;-76
2023/06/28 00:45:50;;;;;;;2.63;1.92;;;;;;;15.32;100.00;96006.91;1026792;28;20058;-77
2023/06/28 00:46:20;;;;;;;6.18;2.35;;;;;;;15.29;100.00;96005.66;1026652;28;20027;-76
2023/06/28 00:46:51;;;;;;;11.18;3.05;;;;;;;15.26;100.00;96006.22;1026431;28;20061;-76
2023/06/28 00:47:21;;;;;;;6.75;1.90;;;;;;;15.21;100.00;96006.28;1036661;28;20092;-76
2023/06/28 00:47:51;;;;;;;5.80;2.22;;;;;;;15.12;100.00;96015.91;1038595;28;20053;-76
2023/06/28 00:48:22;;;;;;;6.88;2.42;;;;;;;15.13;100.00;96020.13;1034914;28;20014;-76
2023/06/28 00:48:52;;;;;;;7.45;2.50;;;;;;;15.03;100.00;96012.34;1034858;28;20510;-76
2023/06/28 00:49:23;;;;;;;3.38;2.20;;;;;;;15.00;100.00;96020.84;1042684;28;20025;-76
2023/06/28 00:49:55;;;;;;;9.25;3.63;;;;;;;15.00;100.00;96012.91;1034621;28;20030;-76
2023/06/28 00:50:26;;;;;;;3.97;2.33;;;;;;;14.95;100.00;96034.09;1038680;28;20025;-75
2023/06/28 00:50:56;;;;;;;4.63;2.38;;;;;;;14.93;100.00;96026.47;1045908;28;20127;-75
2023/06/28 00:51:26;;;;;;;5.43;2.20;;;;;;;14.80;100.00;96024.50;1038095;28;20034;-75
2023/06/28 00:51:58;;;;;;;6.55;2.33;;;;;;;14.64;100.00;96018.59;1034195;28;20052;-75
2023/06/28 00:52:28;;;;;;;4.15;2.22;;;;;;;14.58;100.00;96032.91;1030507;28;20022;-75
2023/06/28 00:52:59;;;;;;;5.13;2.63;;;;;;;14.65;100.00;96041.28;1038441;28;20041;-75
2023/06/28 00:53:30;;;;;;;5.63;2.80;;;;;;;14.65;100.00;96043.94;1038557;28;20033;-76
2023/06/28 00:54:00;;;;;;;7.22;2.90;;;;;;;14.54;100.00;96047.75;1037712;28;20085;-75
2023/06/28 00:54:31;;;;;;;6.45;2.53;;;;;;;14.42;100.00;96034.09;1030619;28;20022;-76
2023/06/28 00:55:01;;;;;;;6.53;3.10;;;;;;;14.43;100.00;96043.63;1038632;28;20029;-75
2023/06/28 00:55:32;;;;;;;7.55;2.40;;;;;;;14.33;100.00;96032.09;1034459;28;20479;-76
2023/06/28 00:56:02;;;;;;;4.35;2.67;;;;;;;14.29;100.00;96044.28;1038162;28;20025;-75
2023/06/28 00:56:33;;;;;;;6.55;2.60;;;;;;;14.33;100.00;96050.56;1030689;28;20128;-75
2023/06/28 00:57:04;;;;;;;2.88;1.88;;;;;;;14.29;100.00;96043.50;1042791;28;20067;-75
2023/06/28 00:57:34;;;;;;;7.43;2.72;;;;;;;14.25;100.00;96051.19;1046420;28;20028;-75
2023/06/28 00:58:05;;;;;;;4.32;2.75;;;;;;;14.16;100.00;96044.91;1042748;28;20107;-75
2023/06/28 00:58:35;;;;;;;9.15;2.95;;;;;;;14.14;100.00;96047.03;1034619;28;20076;-76
2023/06/28 00:59:06;;;;;;;4.25;2.72;;;;;;;14.14;100.00;96057.59;1043416;28;20028;-75
2023/06/28 00:59:36;;;;;;;4.07;2.70;;;;;;;14.05;100.00;96044.22;1046950;28;20453;-75
2023/06/28 01:00:09;;;;;;;6.72;2.85;;;;;;;14.06;100.00;96060.84;1042772;28;20072;-75
2023/06/28 01:00:40;;;;;;;3.38;2.63;;;;;;;14.08;100.00;96075.34;1034688;28;20399;-75
2023/06/28 01:01:10;;;;;;;5.20;2.50;;;;;;;13.99;100.00;96055.88;1033779;28;20030;-75
2023/06/28 01:01:41;;;;;;;9.48;3.38;;;;;;;14.05;100.00;96075.06;1034699;28;20072;-75
2023/06/28 01:02:12;;;;;;;6.78;2.50;;;;;;;14.04;100.00;96073.50;1042687;28;20020;-76
2023/06/28 01:02:44;;;;;;;6.43;3.22;;;;;;;14.06;100.00;96072.16;1042585;28;20040;-75
2023/06/28 01:03:17;;;;;;;4.65;2.60;;;;;;;14.02;100.00;96070.38;1038554;28;20203;-75
2023/06/28 01:03:50;;;;;;;9.73;3.08;;;;;;;13.94;100.00;96068.31;1030540;28;20038;-75
2023/06/28 01:04:20;;;;;;;8.70;2.85;;;;;;;13.86;100.00;96067.84;1036269;28;20098;-76
2023/06/28 01:04:53;;;;;;;4.10;2.92;;;;;;;13.77;100.00;96058.91;1042593;28;20092;-75
2023/06/28 01:05:24;;;;;;;7.43;2.60;;;;;;;13.90;100.00;96078.63;1038719;28;20037;-75
2023/06/28 01:05:57;;;;;;;7.90;2.83;;;;;;;13.89;100.00;96083.13;1031126;28;20030;-75
2023/06/28 01:06:31;;;;;;;3.95;3.10;;;;;;;13.84;100.00;96091.06;1034730;28;20550;-75
2023/06/28 01:07:01;;;;;;;9.82;3.17;;;;;;;13.80;100.00;96084.75;1038696;28;20080;-75
2023/06/28 01:07:34;;;;;;;6.93;3.33;;;;;;;13.75;100.00;96094.53;1038836;28;20524;-75
2023/06/28 01:08:04;;;;;;;5.38;3.60;;;;;;;13.72;100.00;96090.63;1034401;28;20014;-75
2023/06/28 01:08:35;;;;;;;8.27;3.20;;;;;;;13.76;100.00;96093.50;1045637;28;20028;-75
2023/06/28 01:09:07;;;;;;;5.13;3.22;;;;;;;13.68;100.00;96086.94;1042781;28;20017;-75
2023/06/28 01:09:38;;;;;;;5.03;3.55;;;;;;;13.71;100.00;96099.56;1038844;28;20025;-75
2023/06/28 01:10:08;;;;;;;6.28;3.28;;;;;;;13.72;100.00;96097.75;1037113;28;20041;-75
2023/06/28 01:10:39;;;;;;;6.68;3.15;;;;;;;13.76;100.00;96099.56;1038359;28;20048;-75
2023/06/28 01:11:10;;;;;;;9.25;3.38;;;;;;;13.78;100.00;96097.44;1041875;28;20499;-75
2023/06/28 01:11:40;;;;;;;10.45;3.20;;;;;;;13.79;100.00;96103.50;1034694;28;20041;-75
2023/06/28 01:12:11;;;;;;;5.15;3.22;;;;;;;13.68;100.00;96089.56;1034608;28;20030;-76
2023/06/28 01:12:41;;;;;;;6.68;3.30;;;;;;;13.70;100.00;96095.38;1037772;28;20025;-75
2023/06/28 01:13:11;;;;;;;5.65;3.17;;;;;;;13.66;100.00;96099.63;1034618;28;20022;-75
2023/06/28 01:13:42;;;;;;;6.78;3.22;;;;;;;13.64;100.00;96099.09;1030524;28;20035;-75
2023/06/28 01:14:13;;;;;;;10.52;3.40;;;;;;;13.60;100.00;96095.44;1030649;28;20392;-75
2023/06/28 01:14:43;;;;;;;6.32;3.45;;;;;;;13.67;100.00;96103.81;1035217;28;20025;-75
2023/06/28 01:15:13;;;;;;;8.23;3.60;;;;;;;13.65;100.00;96104.09;1042606;28;20047;-75
2023/06/28 01:15:44;;;;;;;4.25;3.58;;;;;;;13.62;100.00;96103.88;1034555;28;20034;-75
2023/06/28 01:16:14;;;;;;;9.45;3.67;;;;;;;13.63;100.00;96105.44;1031743;28;20033;-75
2023/06/28 01:16:49;;;;;;;4.20;3.00;;;;;;;13.62;100.00;96117.06;1030526;28;20030;-75
2023/06/28 01:17:19;;;;;;;6.68;3.63;;;;;;;13.61;100.00;96113.59;1038683;28;20029;-75
2023/06/28 01:17:50;;;;;;;5.57;3.50;;;;;;;13.57;100.00;96111.78;1039269;28;20025;-75
2023/06/28 01:18:23;;;;;;;4.63;4.18;;;;;;;13.56;100.00;96107.59;1038512;28;20083;-75
2023/06/28 01:18:54;;;;;;;7.53;3.55;;;;;;;13.56;100.00;96105.72;1030371;28;20523;-75
2023/06/28 01:19:25;;;;;;;7.65;3.78;;;;;;;13.56;100.00;96111.00;1038676;28;20033;-75
2023/06/28 01:19:56;;;;;;;5.13;3.42;;;;;;;13.60;100.00;96124.44;1038483;28;20466;-75
2023/06/28 01:20:30;;;;;;;4.78;3.53;;;;;;;13.60;100.00;96125.22;1030364;28;20027;-75
2023/06/28 01:21:01;;;;;;;6.18;3.92;;;;;;;13.63;100.00;96126.53;1030055;28;20028;-75
2023/06/28 01:21:33;;;;;;;7.78;3.65;;;;;;;13.57;100.00;96114.44;1030944;28;20031;-75
2023/06/28 01:22:05;;;;;;;8.90;3.70;;;;;;;13.61;100.00;96121.50;1038991;28;20430;-75
2023/06/28 01:22:36;;;;;;;10.75;3.90;;;;;;;13.63;100.00;96124.69;1046718;28;20032;-76
2023/06/28 01:23:06;;;;;;;6.70;3.65;;;;;;;13.62;100.00;96128.38;1042222;28;20017;-75
2023/06/28 01:23:37;;;;;;;6.32;3.80;;;;;;;13.61;100.00;96128.63;1041218;28;20088;-76
2023/06/28 01:24:10;;;;;;;7.65;4.03;;;;;;;13.61;100.00;96133.91;1042736;28;20036;-75
2023/06/28 01:24:41;;;;;;;9.05;3.90;;;;;;;13.59;100.00;96131.56;1039535;28;20034;-75
2023/06/28 01:25:11;;;;;;;4.60;3.78;;;;;;;13.55;100.00;96125.25;1038581;28;20029;-75
2023/06/28 01:25:42;;;;;;;6.72;3.92;;;;;;;13.61;100.00;96134.69;1039528;28;20021;-75
2023/06/28 01:26:12;;;;;;;7.57;3.70;;;;;;;13.58;100.00;96135.25;1038392;28;20754;-75
2023/06/28 01:26:43;;;;;;;6.53;3.97;;;;;;;13.59;100.00;96136.06;1042566;28;20510;-75
2023/06/28 01:27:13;;;;;;;7.63;4.18;;;;;;;13.58;100.00;96126.53;1042627;28;20036;-75
2023/06/28 01:27:44;;;;;;;4.68;3.75;;;;;;;13.60;100.00;96134.97;1042716;28;20056;-75
2023/06/28 01:28:14;;;;;;;5.30;4.00;;;;;;;13.54;100.00;96122.88;1042647;28;20036;-76
2023/06/28 01:28:45;;;;;;;9.70;4.45;;;;;;;13.57;100.00;96130.25;1034274;28;20022;-75
2023/06/28 01:29:15;;;;;;;9.40;4.38;;;;;;;13.51;100.00;96124.19;1034797;28;20022;-75
2023/06/28 01:29:47;;;;;;;7.53;4.50;;;;;;;13.55;100.00;96135.81;1042657;28;20024;-76
2023/06/28 01:30:18;;;;;;;8.80;4.10;;;;;;;13.58;100.00;96137.09;1042815;28;20036;-76
2023/06/28 01:30:49;;;;;;;6.50;4.70;;;;;;;13.51;100.00;96131.31;1042702;28;20114;-75
2023/06/28 01:31:19;;;;;;;5.15;3.83;;;;;;;13.47;100.00;96125.81;1034090;28;20434;-75
2023/06/28 01:31:51;;;;;;;7.30;4.45;;;;;;;13.56;100.00;96136.59;1038399;28;20024;-74
2023/06/28 01:32:23;;;;;;;5.88;4.28;;;;;;;13.53;100.00;96137.91;1034654;28;20096;-75
2023/06/28 01:32:53;;;;;;;7.95;3.95;;;;;;;13.52;100.00;96140.84;1034225;28;20033;-75
2023/06/28 01:33:23;;;;;;;6.35;4.43;;;;;;;13.51;100.00;96144.50;1038716;28;20072;-75
2023/06/28 01:33:54;;;;;;;9.13;3.80;;;;;;;13.49;100.00;96136.88;1042414;28;20025;-76
2023/06/28 01:34:26;;;;;;;5.57;3.95;;;;;;;13.48;100.00;96131.88;1034567;28;20084;-75
2023/06/28 01:34:56;;;;;;;7.85;4.13;;;;;;;13.55;100.00;96145.56;1042501;28;20017;-75
2023/06/28 01:35:28;;;;;;;8.10;4.60;;;;;;;13.56;100.00;96147.13;1042648;28;20029;-75
2023/06/28 01:35:58;;;;;;;10.43;4.18;;;;;;;13.52;100.00;96146.91;1038847;28;20022;-75
2023/06/28 01:36:29;;;;;;;8.25;4.15;;;;;;;13.50;100.00;96150.84;1042876;28;20367;-75
2023/06/28 01:37:00;;;;;;;6.65;4.15;;;;;;;13.49;100.00;96157.19;1039404;28;20076;-75
2023/06/28 01:37:31;;;;;;;11.82;4.50;;;;;;;13.43;100.00;96144.03;1038838;28;20121;-75
2023/06/28 01:38:01;;;;;;;8.07;4.15;;;;;;;13.48;100.00;96152.97;1030455;28;20018;-75
2023/06/28 01:38:32;;;;;;;8.77;4.07;;;;;;;13.48;100.00;96155.59;1030381;28;20082;-75
2023/06/28 01:39:02;;;;;;;6.03;4.05;;;;;;;13.50;100.00;96156.13;1042546;28;20036;-75
2023/06/28 01:39:33;;;;;;;7.65;4.05;;;;;;;13.47;100.00;96143.47;1043329;28;20028;-75
2023/06/28 01:40:05;;;;;;;5.90;3.63;;;;;;;13.52;100.00;96146.91;1039435;28;20021;-76
2023/06/28 01:40:36;;;;;;;10.88;4.80;;;;;;;13.52;100.00;96154.00;1043826;28;20228;-76
2023/06/28 01:41:07;;;;;;;8.88;4.90;;;;;;;13.52;100.00;96157.44;1046920;28;20017;-76
2023/06/28 01:41:37;;;;;;;6.30;4.40;;;;;;;13.50;100.00;96149.00;1043589;28;20091;-76
2023/06/28 01:42:08;;;;;;;9.25;4.13;;;;;;;13.52;100.00;96161.94;1050672;28;20027;-75
2023/06/28 01:42:38;;;;;;;6.65;4.00;;;;;;;13.50;100.00;96150.84;1043350;28;20075;-75
2023/06/28 01:43:09;;;;;;;12.15;4.20;;;;;;;13.40;100.00;96149.81;1035421;28;20499;-76
2023/06/28 01:43:40;;;;;;;7.05;4.03;;;;;;;13.45;100.00;96154.31;1035317;28;20042;-75
2023/06/28 01:44:10;;;;;;;11.02;4.78;;;;;;;13.44;100.00;96157.97;1042927;28;20020;-75
2023/06/28 01:44:41;;;;;;;20.42;5.90;;;;;;;13.45;100.00;96162.22;1035342;28;20029;-75
2023/06/28 01:45:12;;;;;;;12.55;4.50;;;;;;;13.47;100.00;96164.56;1039027;28;20029;-75
2023/06/28 01:45:42;;;;;;;11.48;4.32;;;;;;;13.47;100.00;96161.94;1041891;28;20013;-75
2023/06/28 01:46:13;;;;;;;7.45;4.50;;;;;;;13.45;100.00;96162.22;1043191;28;20290;-75
2023/06/28 01:46:43;;;;;;;5.90;4.32;;;;;;;13.37;100.00;96149.56;1035678;28;20022;-75
2023/06/28 01:47:14;;;;;;;8.18;4.43;;;;;;;13.37;100.00;96158.28;1043534;28;20048;-75
2023/06/28 01:47:44;;;;;;;13.60;5.45;;;;;;;13.39;100.00;96158.81;1043346;28;20020;-75
2023/06/28 01:48:15;;;;;;;12.68;5.35;;;;;;;13.32;100.00;96166.22;1039258;28;20548;-75
2023/06/28 01:48:45;;;;;;;8.90;4.82;;;;;;;13.26;100.00;96159.38;1031287;28;20034;-75
2023/06/28 01:49:15;;;;;;;7.55;4.78;;;;;;;13.24;100.00;96158.84;1038658;28;20083;-75
2023/06/28 01:49:46;;;;;;;13.30;5.10;;;;;;;13.28;100.00;96161.72;1043386;28;20098;-76
2023/06/28 01:50:17;;;;;;;10.32;4.90;;;;;;;13.27;100.00;96160.94;1043364;28;20071;-76
2023/06/28 01:50:47;;;;;;;7.70;4.60;;;;;;;13.27;100.00;96155.66;1037609;28;20036;-75
2023/06/28 01:51:18;;;;;;;6.70;4.50;;;;;;;13.33;100.00;96165.16;1042645;28;20025;-76
2023/06/28 01:51:48;;;;;;;10.07;5.07;;;;;;;13.29;100.00;96152.78;1043372;28;20029;-76
2023/06/28 01:52:19;;;;;;;6.32;4.40;;;;;;;13.32;100.00;96160.94;1039171;28;20029;-76
2023/06/28 01:52:49;;;;;;;8.90;4.07;;;;;;;13.29;100.00;96148.31;1039532;28;20507;-76
2023/06/28 01:53:20;;;;;;;7.97;4.90;;;;;;;13.32;100.00;96163.56;1039051;28;20109;-76
2023/06/28 01:53:50;;;;;;;11.10;4.60;;;;;;;13.29;100.00;96164.13;1035293;28;20125;-76
2023/06/28 01:54:21;;;;;;;11.02;4.45;;;;;;;13.28;100.00;96162.53;1035129;28;20033;-76
2023/06/28 01:54:51;;;;;;;12.77;4.93;;;;;;;13.24;100.00;96155.38;1039160;28;20033;-77
2023/06/28 01:55:22;;;;;;;10.15;4.47;;;;;;;13.28;100.00;96159.91;1043451;28;20483;-76
2023/06/28 01:55:52;;;;;;;6.70;4.55;;;;;;;13.24;100.00;96148.31;1037027;28;20369;-76
2023/06/28 01:56:22;;;;;;;8.55;4.22;;;;;;;13.25;100.00;96162.28;1039222;28;20022;-76
2023/06/28 01:56:53;;;;;;;11.10;4.38;;;;;;;13.18;100.00;96157.28;1039333;28;20056;-76
2023/06/28 01:57:23;;;;;;;7.18;4.90;;;;;;;13.25;100.00;96165.72;1039063;28;20062;-76
2023/06/28 01:57:54;;;;;;;13.07;4.97;;;;;;;13.24;100.00;96156.22;1039093;28;20660;-76
2023/06/28 01:58:24;;;;;;;5.80;4.30;;;;;;;13.24;100.00;96155.38;1035104;28;20411;-75
2023/06/28 01:58:55;;;;;;;10.77;4.65;;;;;;;13.26;100.00;96154.09;1039184;28;20719;-76
2023/06/28 01:59:25;;;;;;;7.03;4.63;;;;;;;13.19;100.00;96151.72;1035895;28;20032;-75
2023/06/28 01:59:56;;;;;;;7.22;4.55;;;;;;;13.25;100.00;96157.81;1035099;28;20022;-76
2023/06/28 02:00:26;;;;;;;5.57;4.15;;;;;;;13.19;100.00;96154.34;1043373;28;20059;-76
2023/06/28 02:00:57;;;;;;;8.70;4.47;;;;;;;13.19;100.00;96151.72;1041107;28;20037;-76
2023/06/28 02:01:27;;;;;;;9.63;4.70;;;;;;;13.20;100.00;96158.56;1043005;28;20029;-76
2023/06/28 02:01:58;;;;;;;10.63;4.03;;;;;;;13.17;100.00;96150.41;1043223;28;20033;-75
2023/06/28 02:02:28;;;;;;;6.18;4.65;;;;;;;13.21;100.00;96161.97;1035669;28;20037;-76
2023/06/28 02:02:59;;;;;;;6.30;4.28;;;;;;;13.20;100.00;96161.19;1035147;28;20037;-76
2023/06/28 02:03:29;;;;;;;13.88;5.25;;;;;;;13.19;100.00;96156.22;1035122;28;20030;-76
2023/06/28 02:03:59;;;;;;;10.45;5.20;;;;;;;13.17;100.00;96158.31;1035176;28;20523;-76
2023/06/28 02:04:30;;;;;;;7.95;4.30;;;;;;;13.01;100.00;96147.03;1039745;28;20041;-76
2023/06/28 02:05:00;;;;;;;9.02;4.85;;;;;;;13.13;100.00;96154.63;1039377;28;20021;-76
2023/06/28 02:05:31;;;;;;;10.82;4.30;;;;;;;13.15;100.00;96163.88;1043337;28;20111;-76
2023/06/28 02:06:02;;;;;;;7.57;4.57;;;;;;;13.14;100.00;96150.94;1039112;28;20037;-76
2023/06/28 02:06:32;;;;;;;6.63;4.38;;;;;;;13.15;100.00;96158.59;1039205;28;20060;-77
2023/06/28 02:07:03;;;;;;;8.77;5.03;;;;;;;13.16;100.00;96160.16;1039377;28;20250;-76
2023/06/28 02:07:33;;;;;;;7.05;4.32;;;;;;;13.16;100.00;96154.09;1043168;28;20024;-76
2023/06/28 02:08:04;;;;;;;5.85;4.70;;;;;;;13.18;100.00;96157.28;1039189;28;20049;-76
2023/06/28 02:08:34;;;;;;;9.10;5.15;;;;;;;13.16;100.00;96159.38;1045941;28;20031;-76
2023/06/28 02:09:05;;;;;;;9.35;4.47;;;;;;;13.13;100.00;96149.38;1043354;28;20041;-77
2023/06/28 02:09:35;;;;;;;7.18;4.50;;;;;;;13.17;100.00;96153.03;1042027;28;20040;-76
2023/06/28 02:10:09;;;;;;;13.07;5.20;;;;;;;13.10;100.00;96142.78;1033631;28;20057;-76
2023/06/28 02:10:39;;;;;;;6.65;4.90;;;;;;;13.12;100.00;96145.16;1039146;28;20457;-76
2023/06/28 02:11:09;;;;;;;9.95;5.47;;;;;;;13.12;100.00;96153.06;1048629;28;20039;-74
2023/06/28 02:11:40;;;;;;;10.80;4.93;;;;;;;13.11;100.00;96154.09;1043338;28;20060;-76
2023/06/28 02:12:10;;;;;;;11.15;4.78;;;;;;;13.14;100.00;96153.56;1043246;28;20029;-76
2023/06/28 02:12:41;;;;;;;6.30;5.18;;;;;;;13.07;100.00;96139.91;1043190;28;20029;-75
2023/06/28 02:13:11;;;;;;;7.65;5.40;;;;;;;13.12;100.00;96151.22;1034754;28;20025;-76
2023/06/28 02:13:42;;;;;;;7.28;4.55;;;;;;;13.11;100.00;96149.66;1031251;28;20026;-76
2023/06/28 02:14:12;;;;;;;7.95;4.80;;;;;;;13.13;100.00;96154.63;1039053;28;20510;-76
2023/06/28 02:14:43;;;;;;;11.90;4.85;;;;;;;13.07;100.00;96151.22;1039182;28;20139;-76
2023/06/28 02:15:14;;;;;;;6.25;5.15;;;;;;;13.11;100.00;96151.47;1035302;28;20072;-76
2023/06/28 02:15:44;;;;;;;16.17;5.20;;;;;;;13.06;100.00;96149.66;1039187;28;20076;-76
2023/06/28 02:16:15;;;;;;;6.80;4.70;;;;;;;13.09;100.00;96149.13;1043192;28;20268;-76
2023/06/28 02:16:45;;;;;;;14.50;5.35;;;;;;;13.05;100.00;96144.66;1039077;28;20029;-76
2023/06/28 02:17:15;;;;;;;9.77;4.97;;;;;;;13.09;100.00;96151.75;1043387;28;20037;-76
2023/06/28 02:17:47;;;;;;;14.00;4.50;;;;;;;13.09;100.00;96153.59;1043508;28;20037;-76
2023/06/28 02:18:24;;;;;;;15.05;5.60;;;;;;;13.05;100.00;96150.72;1034981;28;20022;-76
2023/06/28 02:18:57;;;;;;;14.00;4.72;;;;;;;13.10;100.00;96155.97;1040353;28;20049;-76
2023/06/28 02:19:33;;;;;;;10.82;4.72;;;;;;;13.10;100.00;96155.16;1039270;28;20033;-76
2023/06/28 02:20:04;;;;;;;9.05;4.95;;;;;;;13.10;100.00;96149.91;1043116;28;20075;-77
2023/06/28 02:20:34;;;;;;;9.98;5.32;;;;;;;13.04;100.00;96149.13;1045190;28;20031;-75
2023/06/28 02:21:05;;;;;;;6.03;4.63;;;;;;;13.07;100.00;96150.44;1048063;28;20039;-76
2023/06/28 02:21:35;;;;;;;5.97;4.88;;;;;;;13.08;100.00;96152.03;1047488;28;20456;-76
2023/06/28 02:22:06;;;;;;;10.40;4.88;;;;;;;13.08;100.00;96147.56;1046744;28;20021;-76
2023/06/28 02:22:37;;;;;;;10.88;5.00;;;;;;;13.10;100.00;96155.16;1042475;28;20036;-73
2023/06/28 02:23:07;;;;;;;9.13;5.15;;;;;;;13.05;100.00;96142.03;1047627;28;20044;-76